sensor_id;sensor_type;location;lat;lon;timestamp;P1;durP1;ratioP1;P2;durP2;ratioP2
80175;SDS011;69501;42.124;24.722;2023-05-27T00:01:18;6.00;;;4.38;;
80175;SDS011;69501;42.124;24.722;2023-05-27T00:03:45;8.57;;;4.70;;
80175;SDS011;69501;42.124;24.722;2023-05-27T00:06:11;5.15;;;4.45;;
80175;SDS011;69501;42.124;24.722;2023-05-27T00:08:37;5.85;;;4.50;;
80175;SDS011;69501;42.124;24.722;2023-05-27T00:11:02;4.95;;;4.43;;
80175;SDS011;69501;42.124;24.722;2023-05-27T00:13:28;4.53;;;4.10;;
80175;SDS011;69501;42.124;24.722;2023-05-27T00:15:54;8.30;;;4.97;;
80175;SDS011;69501;42.124;24.722;2023-05-27T00:18:20;4.55;;;4.25;;
80175;SDS011;69501;42.124;24.722;2023-05-27T00:20:46;5.35;;;4.45;;
80175;SDS011;69501;42.124;24.722;2023-05-27T00:23:13;5.28;;;4.43;;
80175;SDS011;69501;42.124;24.722;2023-05-27T00:25:39;4.85;;;4.35;;
80175;SDS011;69501;42.124;24.722;2023-05-27T00:28:05;4.95;;;4.40;;
80175;SDS011;69501;42.124;24.722;2023-05-27T00:30:31;5.30;;;4.20;;
80175;SDS011;69501;42.124;24.722;2023-05-27T00:32:56;4.55;;;4.25;;
80175;SDS011;69501;42.124;24.722;2023-05-27T00:35:23;4.25;;;3.90;;
80175;SDS011;69501;42.124;24.722;2023-05-27T00:37:48;4.50;;;4.10;;
80175;SDS011;69501;42.124;24.722;2023-05-27T00:40:15;4.88;;;4.15;;
80175;SDS011;69501;42.124;24.722;2023-05-27T00:42:45;4.53;;;4.22;;
80175;SDS011;69501;42.124;24.722;2023-05-27T00:45:11;4.20;;;3.90;;
80175;SDS011;69501;42.124;24.722;2023-05-27T00:47:37;7.07;;;4.65;;
80175;SDS011;69501;42.124;24.722;2023-05-27T00:50:03;4.60;;;4.20;;
80175;SDS011;69501;42.124;24.722;2023-05-27T00:52:29;4.65;;;4.25;;
80175;SDS011;69501;42.124;24.722;2023-05-27T00:54:55;5.25;;;4.70;;
80175;SDS011;69501;42.124;24.722;2023-05-27T00:57:21;5.10;;;4.60;;
80175;SDS011;69501;42.124;24.722;2023-05-27T00:59:47;4.80;;;4.40;;
80175;SDS011;69501;42.124;24.722;2023-05-27T01:02:13;6.05;;;4.10;;
80175;SDS011;69501;42.124;24.722;2023-05-27T01:04:40;4.18;;;3.88;;
80175;SDS011;69501;42.124;24.722;2023-05-27T01:12:34;6.57;;;3.85;;
80175;SDS011;69501;42.124;24.722;2023-05-27T01:15:09;4.18;;;3.60;;
80175;SDS011;69501;42.124;24.722;2023-05-27T01:17:35;7.15;;;3.97;;
80175;SDS011;69501;42.124;24.722;2023-05-27T01:20:07;4.40;;;3.90;;
80175;SDS011;69501;42.124;24.722;2023-05-27T01:22:35;4.07;;;3.85;;
80175;SDS011;69501;42.124;24.722;2023-05-27T01:25:02;3.92;;;3.53;;
80175;SDS011;69501;42.124;24.722;2023-05-27T01:27:28;4.07;;;3.78;;
80175;SDS011;69501;42.124;24.722;2023-05-27T01:29:54;4.47;;;4.07;;
80175;SDS011;69501;42.124;24.722;2023-05-27T01:32:23;3.97;;;3.67;;
80175;SDS011;69501;42.124;24.722;2023-05-27T01:37:32;4.30;;;3.90;;
80175;SDS011;69501;42.124;24.722;2023-05-27T01:40:02;4.45;;;3.60;;
80175;SDS011;69501;42.124;24.722;2023-05-27T01:42:30;3.90;;;3.60;;
80175;SDS011;69501;42.124;24.722;2023-05-27T01:44:57;4.05;;;3.50;;
80175;SDS011;69501;42.124;24.722;2023-05-27T01:47:25;4.20;;;3.65;;
80175;SDS011;69501;42.124;24.722;2023-05-27T01:49:52;3.70;;;3.40;;
80175;SDS011;69501;42.124;24.722;2023-05-27T01:52:18;3.78;;;3.47;;
80175;SDS011;69501;42.124;24.722;2023-05-27T01:54:43;3.80;;;3.50;;
80175;SDS011;69501;42.124;24.722;2023-05-27T01:57:09;3.58;;;3.28;;
80175;SDS011;69501;42.124;24.722;2023-05-27T01:59:35;4.63;;;3.72;;
80175;SDS011;69501;42.124;24.722;2023-05-27T02:02:00;5.72;;;3.20;;
80175;SDS011;69501;42.124;24.722;2023-05-27T02:04:26;4.25;;;3.42;;
80175;SDS011;69501;42.124;24.722;2023-05-27T02:06:52;4.93;;;3.40;;
80175;SDS011;69501;42.124;24.722;2023-05-27T02:09:17;5.15;;;3.30;;
80175;SDS011;69501;42.124;24.722;2023-05-27T02:11:43;3.80;;;3.50;;
80175;SDS011;69501;42.124;24.722;2023-05-27T02:14:09;4.85;;;3.85;;
80175;SDS011;69501;42.124;24.722;2023-05-27T02:16:34;3.80;;;3.50;;
80175;SDS011;69501;42.124;24.722;2023-05-27T02:19:01;4.30;;;3.38;;
80175;SDS011;69501;42.124;24.722;2023-05-27T02:21:27;4.55;;;3.35;;
80175;SDS011;69501;42.124;24.722;2023-05-27T02:23:53;3.22;;;3.00;;
80175;SDS011;69501;42.124;24.722;2023-05-27T02:26:19;3.75;;;3.40;;
80175;SDS011;69501;42.124;24.722;2023-05-27T02:28:46;4.38;;;3.50;;
80175;SDS011;69501;42.124;24.722;2023-05-27T02:31:11;3.75;;;3.45;;
80175;SDS011;69501;42.124;24.722;2023-05-27T02:33:37;3.33;;;3.08;;
80175;SDS011;69501;42.124;24.722;2023-05-27T02:36:03;3.58;;;3.38;;
80175;SDS011;69501;42.124;24.722;2023-05-27T02:38:28;3.42;;;3.20;;
80175;SDS011;69501;42.124;24.722;2023-05-27T02:40:54;3.85;;;3.65;;
80175;SDS011;69501;42.124;24.722;2023-05-27T02:43:20;3.97;;;3.38;;
80175;SDS011;69501;42.124;24.722;2023-05-27T02:45:46;3.75;;;3.45;;
80175;SDS011;69501;42.124;24.722;2023-05-27T02:48:11;5.70;;;3.22;;
80175;SDS011;69501;42.124;24.722;2023-05-27T02:50:37;3.50;;;3.20;;
80175;SDS011;69501;42.124;24.722;2023-05-27T02:53:03;3.65;;;3.42;;
80175;SDS011;69501;42.124;24.722;2023-05-27T02:55:29;3.75;;;3.45;;
80175;SDS011;69501;42.124;24.722;2023-05-27T02:57:55;3.35;;;3.10;;
80175;SDS011;69501;42.124;24.722;2023-05-27T03:00:20;3.42;;;3.13;;
80175;SDS011;69501;42.124;24.722;2023-05-27T03:02:46;4.38;;;3.33;;
80175;SDS011;69501;42.124;24.722;2023-05-27T03:05:12;4.85;;;3.63;;
80175;SDS011;69501;42.124;24.722;2023-05-27T03:07:40;5.32;;;3.25;;
80175;SDS011;69501;42.124;24.722;2023-05-27T03:10:08;3.20;;;2.90;;
80175;SDS011;69501;42.124;24.722;2023-05-27T03:12:34;3.92;;;3.60;;
80175;SDS011;69501;42.124;24.722;2023-05-27T03:14:59;3.80;;;3.40;;
80175;SDS011;69501;42.124;24.722;2023-05-27T03:17:25;6.10;;;3.30;;
80175;SDS011;69501;42.124;24.722;2023-05-27T03:19:51;4.30;;;3.70;;
80175;SDS011;69501;42.124;24.722;2023-05-27T03:22:17;3.67;;;3.25;;
80175;SDS011;69501;42.124;24.722;2023-05-27T03:24:42;3.40;;;3.00;;
80175;SDS011;69501;42.124;24.722;2023-05-27T03:27:09;3.47;;;3.20;;
80175;SDS011;69501;42.124;24.722;2023-05-27T03:29:35;3.80;;;3.50;;
80175;SDS011;69501;42.124;24.722;2023-05-27T03:32:01;3.75;;;3.33;;
80175;SDS011;69501;42.124;24.722;2023-05-27T03:34:27;3.92;;;3.30;;
80175;SDS011;69501;42.124;24.722;2023-05-27T03:36:53;4.03;;;3.42;;
80175;SDS011;69501;42.124;24.722;2023-05-27T03:39:18;5.22;;;3.58;;
80175;SDS011;69501;42.124;24.722;2023-05-27T03:41:44;4.13;;;3.65;;
80175;SDS011;69501;42.124;24.722;2023-05-27T03:44:10;5.22;;;2.88;;
80175;SDS011;69501;42.124;24.722;2023-05-27T03:46:35;6.32;;;3.35;;
80175;SDS011;69501;42.124;24.722;2023-05-27T03:49:01;4.40;;;3.15;;
80175;SDS011;69501;42.124;24.722;2023-05-27T03:51:27;3.72;;;3.42;;
80175;SDS011;69501;42.124;24.722;2023-05-27T03:53:53;5.78;;;4.95;;
80175;SDS011;69501;42.124;24.722;2023-05-27T03:56:19;10.13;;;6.07;;
80175;SDS011;69501;42.124;24.722;2023-05-27T03:58:44;6.10;;;4.70;;
80175;SDS011;69501;42.124;24.722;2023-05-27T04:01:10;4.72;;;4.22;;
80175;SDS011;69501;42.124;24.722;2023-05-27T04:03:36;5.28;;;4.05;;
80175;SDS011;69501;42.124;24.722;2023-05-27T04:06:04;4.50;;;4.07;;
80175;SDS011;69501;42.124;24.722;2023-05-27T04:08:30;4.65;;;3.88;;
80175;SDS011;69501;42.124;24.722;2023-05-27T04:10:56;3.33;;;3.05;;
80175;SDS011;69501;42.124;24.722;2023-05-27T04:13:22;3.75;;;3.40;;
80175;SDS011;69501;42.124;24.722;2023-05-27T04:15:48;3.22;;;3.03;;
80175;SDS011;69501;42.124;24.722;2023-05-27T04:18:14;5.25;;;3.08;;
80175;SDS011;69501;42.124;24.722;2023-05-27T04:20:40;3.58;;;3.10;;
80175;SDS011;69501;42.124;24.722;2023-05-27T04:23:08;3.10;;;2.70;;
80175;SDS011;69501;42.124;24.722;2023-05-27T04:25:34;3.45;;;3.15;;
80175;SDS011;69501;42.124;24.722;2023-05-27T04:28:00;3.47;;;3.17;;
80175;SDS011;69501;42.124;24.722;2023-05-27T04:30:30;3.13;;;2.92;;
80175;SDS011;69501;42.124;24.722;2023-05-27T04:32:56;5.38;;;3.60;;
80175;SDS011;69501;42.124;24.722;2023-05-27T04:35:23;3.80;;;3.40;;
80175;SDS011;69501;42.124;24.722;2023-05-27T04:37:48;4.65;;;3.55;;
80175;SDS011;69501;42.124;24.722;2023-05-27T04:40:14;3.55;;;3.25;;
80175;SDS011;69501;42.124;24.722;2023-05-27T04:42:40;3.50;;;3.05;;
80175;SDS011;69501;42.124;24.722;2023-05-27T04:45:08;6.63;;;3.45;;
80175;SDS011;69501;42.124;24.722;2023-05-27T04:47:36;5.45;;;3.20;;
80175;SDS011;69501;42.124;24.722;2023-05-27T04:50:03;3.22;;;3.03;;
80175;SDS011;69501;42.124;24.722;2023-05-27T04:52:29;3.33;;;3.08;;
80175;SDS011;69501;42.124;24.722;2023-05-27T04:55:02;5.13;;;2.93;;
80175;SDS011;69501;42.124;24.722;2023-05-27T04:57:29;3.60;;;3.10;;
80175;SDS011;69501;42.124;24.722;2023-05-27T04:59:54;3.80;;;3.08;;
80175;SDS011;69501;42.124;24.722;2023-05-27T05:02:29;3.35;;;3.13;;
80175;SDS011;69501;42.124;24.722;2023-05-27T05:05:06;7.60;;;3.45;;
80175;SDS011;69501;42.124;24.722;2023-05-27T05:07:39;3.72;;;3.00;;
80175;SDS011;69501;42.124;24.722;2023-05-27T05:10:12;4.20;;;3.42;;
80175;SDS011;69501;42.124;24.722;2023-05-27T05:12:38;4.40;;;3.40;;
80175;SDS011;69501;42.124;24.722;2023-05-27T05:15:04;16.13;;;4.15;;
80175;SDS011;69501;42.124;24.722;2023-05-27T05:17:31;4.68;;;3.22;;
80175;SDS011;69501;42.124;24.722;2023-05-27T05:19:56;3.90;;;3.25;;
80175;SDS011;69501;42.124;24.722;2023-05-27T05:22:22;4.57;;;3.42;;
80175;SDS011;69501;42.124;24.722;2023-05-27T05:25:47;3.85;;;3.30;;
80175;SDS011;69501;42.124;24.722;2023-05-27T05:28:19;4.13;;;3.72;;
80175;SDS011;69501;42.124;24.722;2023-05-27T05:30:45;3.58;;;3.38;;
80175;SDS011;69501;42.124;24.722;2023-05-27T05:33:10;3.83;;;3.50;;
80175;SDS011;69501;42.124;24.722;2023-05-27T05:35:36;9.68;;;3.55;;
80175;SDS011;69501;42.124;24.722;2023-05-27T05:38:02;9.73;;;3.90;;
80175;SDS011;69501;42.124;24.722;2023-05-27T05:40:27;7.28;;;4.15;;
80175;SDS011;69501;42.124;24.722;2023-05-27T05:42:53;4.72;;;3.13;;
80175;SDS011;69501;42.124;24.722;2023-05-27T05:45:19;5.30;;;3.20;;
80175;SDS011;69501;42.124;24.722;2023-05-27T05:47:44;4.63;;;3.00;;
80175;SDS011;69501;42.124;24.722;2023-05-27T05:50:10;4.45;;;3.00;;
80175;SDS011;69501;42.124;24.722;2023-05-27T05:52:36;3.72;;;2.80;;
80175;SDS011;69501;42.124;24.722;2023-05-27T05:55:01;4.97;;;3.00;;
80175;SDS011;69501;42.124;24.722;2023-05-27T05:57:27;4.07;;;2.70;;
80175;SDS011;69501;42.124;24.722;2023-05-27T05:59:56;3.47;;;2.42;;
80175;SDS011;69501;42.124;24.722;2023-05-27T06:02:22;4.07;;;2.30;;
80175;SDS011;69501;42.124;24.722;2023-05-27T06:04:48;2.50;;;2.30;;
80175;SDS011;69501;42.124;24.722;2023-05-27T06:07:13;4.65;;;2.97;;
80175;SDS011;69501;42.124;24.722;2023-05-27T06:09:39;2.40;;;2.20;;
80175;SDS011;69501;42.124;24.722;2023-05-27T06:12:05;3.53;;;2.75;;
80175;SDS011;69501;42.124;24.722;2023-05-27T06:14:31;3.33;;;2.83;;
80175;SDS011;69501;42.124;24.722;2023-05-27T06:16:57;3.42;;;3.13;;
80175;SDS011;69501;42.124;24.722;2023-05-27T06:19:22;3.47;;;2.95;;
80175;SDS011;69501;42.124;24.722;2023-05-27T06:21:48;6.82;;;5.13;;
80175;SDS011;69501;42.124;24.722;2023-05-27T06:24:14;5.03;;;4.28;;
80175;SDS011;69501;42.124;24.722;2023-05-27T06:26:40;4.40;;;3.90;;
80175;SDS011;69501;42.124;24.722;2023-05-27T06:29:05;3.20;;;2.85;;
80175;SDS011;69501;42.124;24.722;2023-05-27T06:31:31;5.28;;;4.25;;
80175;SDS011;69501;42.124;24.722;2023-05-27T06:33:58;3.67;;;3.33;;
80175;SDS011;69501;42.124;24.722;2023-05-27T06:36:24;3.85;;;3.55;;
80175;SDS011;69501;42.124;24.722;2023-05-27T06:38:49;4.68;;;3.55;;
80175;SDS011;69501;42.124;24.722;2023-05-27T06:41:15;7.32;;;3.72;;
80175;SDS011;69501;42.124;24.722;2023-05-27T06:43:41;4.97;;;3.45;;
80175;SDS011;69501;42.124;24.722;2023-05-27T06:46:07;5.68;;;3.60;;
80175;SDS011;69501;42.124;24.722;2023-05-27T06:48:33;4.85;;;4.20;;
80175;SDS011;69501;42.124;24.722;2023-05-27T06:50:59;7.65;;;4.05;;
80175;SDS011;69501;42.124;24.722;2023-05-27T06:53:24;7.15;;;3.65;;
80175;SDS011;69501;42.124;24.722;2023-05-27T06:55:50;11.52;;;4.60;;
80175;SDS011;69501;42.124;24.722;2023-05-27T06:58:16;9.07;;;4.00;;
80175;SDS011;69501;42.124;24.722;2023-05-27T07:00:42;5.72;;;3.83;;
80175;SDS011;69501;42.124;24.722;2023-05-27T07:03:07;6.90;;;4.40;;
80175;SDS011;69501;42.124;24.722;2023-05-27T07:05:33;4.70;;;4.07;;
80175;SDS011;69501;42.124;24.722;2023-05-27T07:07:59;8.40;;;3.50;;
80175;SDS011;69501;42.124;24.722;2023-05-27T07:10:24;5.03;;;3.65;;
80175;SDS011;69501;42.124;24.722;2023-05-27T07:12:50;12.65;;;3.60;;
80175;SDS011;69501;42.124;24.722;2023-05-27T07:15:16;8.70;;;4.63;;
80175;SDS011;69501;42.124;24.722;2023-05-27T07:17:42;7.95;;;4.70;;
80175;SDS011;69501;42.124;24.722;2023-05-27T07:20:07;6.50;;;4.93;;
80175;SDS011;69501;42.124;24.722;2023-05-27T07:22:33;5.80;;;4.47;;
80175;SDS011;69501;42.124;24.722;2023-05-27T07:24:59;6.38;;;4.13;;
80175;SDS011;69501;42.124;24.722;2023-05-27T07:27:25;4.25;;;3.83;;
80175;SDS011;69501;42.124;24.722;2023-05-27T07:29:51;5.55;;;4.22;;
80175;SDS011;69501;42.124;24.722;2023-05-27T07:32:16;5.00;;;4.32;;
80175;SDS011;69501;42.124;24.722;2023-05-27T07:34:42;4.82;;;4.28;;
80175;SDS011;69501;42.124;24.722;2023-05-27T07:37:08;4.45;;;4.15;;
80175;SDS011;69501;42.124;24.722;2023-05-27T07:39:33;5.75;;;4.28;;
80175;SDS011;69501;42.124;24.722;2023-05-27T07:41:59;5.30;;;4.80;;
80175;SDS011;69501;42.124;24.722;2023-05-27T07:44:25;7.93;;;6.10;;
80175;SDS011;69501;42.124;24.722;2023-05-27T07:46:53;5.75;;;4.80;;
80175;SDS011;69501;42.124;24.722;2023-05-27T07:49:19;12.48;;;5.50;;
80175;SDS011;69501;42.124;24.722;2023-05-27T07:51:45;7.90;;;4.07;;
80175;SDS011;69501;42.124;24.722;2023-05-27T07:54:11;6.50;;;5.05;;
80175;SDS011;69501;42.124;24.722;2023-05-27T07:56:37;8.68;;;4.45;;
80175;SDS011;69501;42.124;24.722;2023-05-27T07:59:02;5.28;;;4.40;;
80175;SDS011;69501;42.124;24.722;2023-05-27T08:01:29;4.97;;;4.45;;
80175;SDS011;69501;42.124;24.722;2023-05-27T08:03:57;5.55;;;4.78;;
80175;SDS011;69501;42.124;24.722;2023-05-27T08:06:24;5.93;;;5.15;;
80175;SDS011;69501;42.124;24.722;2023-05-27T08:08:50;6.72;;;4.28;;
80175;SDS011;69501;42.124;24.722;2023-05-27T08:11:15;6.28;;;3.63;;
80175;SDS011;69501;42.124;24.722;2023-05-27T08:13:41;6.45;;;4.50;;
80175;SDS011;69501;42.124;24.722;2023-05-27T08:16:07;4.50;;;4.00;;
80175;SDS011;69501;42.124;24.722;2023-05-27T08:18:35;9.50;;;6.55;;
80175;SDS011;69501;42.124;24.722;2023-05-27T08:21:01;7.65;;;5.10;;
80175;SDS011;69501;42.124;24.722;2023-05-27T08:23:26;6.95;;;5.60;;
80175;SDS011;69501;42.124;24.722;2023-05-27T08:25:52;12.10;;;6.68;;
80175;SDS011;69501;42.124;24.722;2023-05-27T08:28:18;7.88;;;5.80;;
80175;SDS011;69501;42.124;24.722;2023-05-27T08:30:43;8.40;;;5.88;;
80175;SDS011;69501;42.124;24.722;2023-05-27T08:33:09;7.50;;;5.10;;
80175;SDS011;69501;42.124;24.722;2023-05-27T08:35:35;8.45;;;5.88;;
80175;SDS011;69501;42.124;24.722;2023-05-27T08:38:01;6.78;;;5.30;;
80175;SDS011;69501;42.124;24.722;2023-05-27T08:40:26;8.85;;;5.03;;
80175;SDS011;69501;42.124;24.722;2023-05-27T08:42:52;7.57;;;6.28;;
80175;SDS011;69501;42.124;24.722;2023-05-27T08:45:18;7.43;;;4.65;;
80175;SDS011;69501;42.124;24.722;2023-05-27T08:47:43;5.57;;;5.05;;
80175;SDS011;69501;42.124;24.722;2023-05-27T08:50:09;5.78;;;4.50;;
80175;SDS011;69501;42.124;24.722;2023-05-27T08:52:38;6.75;;;4.00;;
80175;SDS011;69501;42.124;24.722;2023-05-27T08:55:09;6.55;;;5.43;;
80175;SDS011;69501;42.124;24.722;2023-05-27T08:57:39;6.53;;;4.93;;
80175;SDS011;69501;42.124;24.722;2023-05-27T09:00:10;5.85;;;4.80;;
80175;SDS011;69501;42.124;24.722;2023-05-27T09:02:38;4.88;;;3.90;;
80175;SDS011;69501;42.124;24.722;2023-05-27T09:05:05;6.15;;;4.28;;
80175;SDS011;69501;42.124;24.722;2023-05-27T09:07:33;4.15;;;3.70;;
80175;SDS011;69501;42.124;24.722;2023-05-27T09:09:59;7.80;;;3.85;;
80175;SDS011;69501;42.124;24.722;2023-05-27T09:12:25;4.35;;;3.90;;
80175;SDS011;69501;42.124;24.722;2023-05-27T09:14:52;3.65;;;3.35;;
80175;SDS011;69501;42.124;24.722;2023-05-27T09:17:19;4.50;;;3.92;;
80175;SDS011;69501;42.124;24.722;2023-05-27T09:19:49;4.40;;;4.00;;
80175;SDS011;69501;42.124;24.722;2023-05-27T09:22:30;4.80;;;3.85;;
80175;SDS011;69501;42.124;24.722;2023-05-27T09:24:57;5.43;;;4.10;;
80175;SDS011;69501;42.124;24.722;2023-05-27T09:27:29;6.00;;;4.15;;
80175;SDS011;69501;42.124;24.722;2023-05-27T09:29:56;4.75;;;4.28;;
80175;SDS011;69501;42.124;24.722;2023-05-27T09:32:24;3.95;;;3.65;;
80175;SDS011;69501;42.124;24.722;2023-05-27T09:34:57;4.60;;;4.05;;
80175;SDS011;69501;42.124;24.722;2023-05-27T09:37:30;4.53;;;3.92;;
80175;SDS011;69501;42.124;24.722;2023-05-27T09:40:04;4.65;;;4.15;;
80175;SDS011;69501;42.124;24.722;2023-05-27T09:42:47;4.60;;;4.00;;
80175;SDS011;69501;42.124;24.722;2023-05-27T09:45:15;4.50;;;3.90;;
80175;SDS011;69501;42.124;24.722;2023-05-27T09:47:48;6.75;;;3.70;;
80175;SDS011;69501;42.124;24.722;2023-05-27T09:50:14;4.68;;;3.70;;
80175;SDS011;69501;42.124;24.722;2023-05-27T09:52:41;6.00;;;4.00;;
80175;SDS011;69501;42.124;24.722;2023-05-27T09:55:09;4.32;;;4.03;;
80175;SDS011;69501;42.124;24.722;2023-05-27T09:57:37;4.35;;;3.75;;
80175;SDS011;69501;42.124;24.722;2023-05-27T10:00:04;5.80;;;3.92;;
80175;SDS011;69501;42.124;24.722;2023-05-27T10:02:36;4.90;;;3.47;;
80175;SDS011;69501;42.124;24.722;2023-05-27T10:05:03;4.95;;;4.30;;
80175;SDS011;69501;42.124;24.722;2023-05-27T10:07:34;8.55;;;3.35;;
80175;SDS011;69501;42.124;24.722;2023-05-27T10:10:06;5.40;;;3.70;;
80175;SDS011;69501;42.124;24.722;2023-05-27T10:12:44;5.78;;;3.92;;
80175;SDS011;69501;42.124;24.722;2023-05-27T10:17:53;10.85;;;6.50;;
80175;SDS011;69501;42.124;24.722;2023-05-27T10:20:41;5.88;;;3.67;;
80175;SDS011;69501;42.124;24.722;2023-05-27T10:23:40;7.47;;;5.10;;
80175;SDS011;69501;42.124;24.722;2023-05-27T10:26:06;4.55;;;4.13;;
80175;SDS011;69501;42.124;24.722;2023-05-27T10:28:34;5.13;;;4.65;;
80175;SDS011;69501;42.124;24.722;2023-05-27T10:33:34;4.43;;;4.10;;
80175;SDS011;69501;42.124;24.722;2023-05-27T10:36:04;4.50;;;4.10;;
80175;SDS011;69501;42.124;24.722;2023-05-27T10:38:43;4.45;;;4.05;;
80175;SDS011;69501;42.124;24.722;2023-05-27T10:41:20;4.15;;;3.78;;
80175;SDS011;69501;42.124;24.722;2023-05-27T10:43:56;4.47;;;3.88;;
80175;SDS011;69501;42.124;24.722;2023-05-27T10:46:23;4.07;;;3.20;;
80175;SDS011;69501;42.124;24.722;2023-05-27T10:48:49;3.70;;;3.20;;
80175;SDS011;69501;42.124;24.722;2023-05-27T10:51:15;3.75;;;3.42;;
80175;SDS011;69501;42.124;24.722;2023-05-27T10:53:41;3.90;;;3.33;;
80175;SDS011;69501;42.124;24.722;2023-05-27T10:56:07;3.05;;;2.85;;
80175;SDS011;69501;42.124;24.722;2023-05-27T10:58:36;3.58;;;3.03;;
80175;SDS011;69501;42.124;24.722;2023-05-27T11:01:13;5.97;;;4.03;;
80175;SDS011;69501;42.124;24.722;2023-05-27T11:03:44;3.17;;;2.88;;
80175;SDS011;69501;42.124;24.722;2023-05-27T11:06:10;4.03;;;3.60;;
80175;SDS011;69501;42.124;24.722;2023-05-27T11:08:38;4.15;;;2.90;;
80175;SDS011;69501;42.124;24.722;2023-05-27T11:11:07;4.57;;;4.05;;
80175;SDS011;69501;42.124;24.722;2023-05-27T11:13:35;3.40;;;3.20;;
80175;SDS011;69501;42.124;24.722;2023-05-27T11:16:03;2.70;;;2.53;;
80175;SDS011;69501;42.124;24.722;2023-05-27T11:18:37;4.00;;;3.60;;
80175;SDS011;69501;42.124;24.722;2023-05-27T11:21:04;4.97;;;2.95;;
80175;SDS011;69501;42.124;24.722;2023-05-27T11:23:35;2.95;;;2.42;;
80175;SDS011;69501;42.124;24.722;2023-05-27T11:28:52;6.35;;;2.78;;
80175;SDS011;69501;42.124;24.722;2023-05-27T11:31:20;3.35;;;2.60;;
80175;SDS011;69501;42.124;24.722;2023-05-27T11:33:50;3.67;;;2.33;;
80175;SDS011;69501;42.124;24.722;2023-05-27T11:36:16;2.63;;;2.42;;
80175;SDS011;69501;42.124;24.722;2023-05-27T11:38:52;3.75;;;2.30;;
80175;SDS011;69501;42.124;24.722;2023-05-27T11:41:23;6.20;;;2.28;;
80175;SDS011;69501;42.124;24.722;2023-05-27T11:43:55;2.38;;;2.17;;
80175;SDS011;69501;42.124;24.722;2023-05-27T11:46:22;2.10;;;1.70;;
80175;SDS011;69501;42.124;24.722;2023-05-27T11:49:09;5.00;;;2.70;;
80175;SDS011;69501;42.124;24.722;2023-05-27T11:51:36;2.30;;;2.20;;
80175;SDS011;69501;42.124;24.722;2023-05-27T11:54:04;2.72;;;2.22;;
80175;SDS011;69501;42.124;24.722;2023-05-27T11:56:30;2.30;;;2.10;;
80175;SDS011;69501;42.124;24.722;2023-05-27T11:58:56;2.95;;;2.17;;
80175;SDS011;69501;42.124;24.722;2023-05-27T12:01:23;3.50;;;2.17;;
80175;SDS011;69501;42.124;24.722;2023-05-27T12:03:49;2.90;;;2.60;;
80175;SDS011;69501;42.124;24.722;2023-05-27T12:06:14;2.72;;;2.40;;
80175;SDS011;69501;42.124;24.722;2023-05-27T12:08:41;2.10;;;2.00;;
80175;SDS011;69501;42.124;24.722;2023-05-27T12:11:06;2.55;;;2.35;;
80175;SDS011;69501;42.124;24.722;2023-05-27T12:13:32;3.55;;;2.80;;
80175;SDS011;69501;42.124;24.722;2023-05-27T12:15:58;3.75;;;2.83;;
80175;SDS011;69501;42.124;24.722;2023-05-27T12:18:24;2.83;;;2.55;;
80175;SDS011;69501;42.124;24.722;2023-05-27T12:20:50;2.47;;;2.38;;
80175;SDS011;69501;42.124;24.722;2023-05-27T12:23:17;2.88;;;2.60;;
80175;SDS011;69501;42.124;24.722;2023-05-27T12:25:42;3.03;;;2.72;;
80175;SDS011;69501;42.124;24.722;2023-05-27T12:28:09;2.97;;;2.78;;
80175;SDS011;69501;42.124;24.722;2023-05-27T12:30:35;2.65;;;2.45;;
80175;SDS011;69501;42.124;24.722;2023-05-27T12:33:02;3.10;;;2.80;;
80175;SDS011;69501;42.124;24.722;2023-05-27T12:35:29;3.28;;;3.03;;
80175;SDS011;69501;42.124;24.722;2023-05-27T12:37:55;4.60;;;2.90;;
80175;SDS011;69501;42.124;24.722;2023-05-27T12:40:21;3.72;;;2.70;;
80175;SDS011;69501;42.124;24.722;2023-05-27T12:42:47;4.85;;;2.67;;
80175;SDS011;69501;42.124;24.722;2023-05-27T12:45:13;3.08;;;2.78;;
80175;SDS011;69501;42.124;24.722;2023-05-27T12:47:39;4.13;;;2.92;;
80175;SDS011;69501;42.124;24.722;2023-05-27T12:50:05;3.20;;;2.90;;
80175;SDS011;69501;42.124;24.722;2023-05-27T12:52:31;6.68;;;3.03;;
80175;SDS011;69501;42.124;24.722;2023-05-27T12:54:57;2.92;;;2.70;;
80175;SDS011;69501;42.124;24.722;2023-05-27T12:57:23;2.35;;;2.25;;
80175;SDS011;69501;42.124;24.722;2023-05-27T12:59:49;2.72;;;2.53;;
80175;SDS011;69501;42.124;24.722;2023-05-27T13:02:14;3.10;;;2.80;;
80175;SDS011;69501;42.124;24.722;2023-05-27T13:04:40;3.22;;;3.00;;
80175;SDS011;69501;42.124;24.722;2023-05-27T13:07:07;3.97;;;3.20;;
80175;SDS011;69501;42.124;24.722;2023-05-27T13:09:35;3.38;;;3.08;;
80175;SDS011;69501;42.124;24.722;2023-05-27T13:12:00;6.47;;;3.28;;
80175;SDS011;69501;42.124;24.722;2023-05-27T13:14:27;3.30;;;2.50;;
80175;SDS011;69501;42.124;24.722;2023-05-27T13:16:52;8.05;;;2.95;;
80175;SDS011;69501;42.124;24.722;2023-05-27T13:19:19;3.75;;;3.38;;
80175;SDS011;69501;42.124;24.722;2023-05-27T13:21:45;4.82;;;3.75;;
80175;SDS011;69501;42.124;24.722;2023-05-27T13:24:11;7.00;;;3.90;;
80175;SDS011;69501;42.124;24.722;2023-05-27T13:26:37;7.28;;;3.60;;
80175;SDS011;69501;42.124;24.722;2023-05-27T13:29:03;3.80;;;3.45;;
80175;SDS011;69501;42.124;24.722;2023-05-27T13:31:28;3.33;;;3.10;;
80175;SDS011;69501;42.124;24.722;2023-05-27T13:33:54;4.05;;;3.70;;
80175;SDS011;69501;42.124;24.722;2023-05-27T13:36:20;6.75;;;5.72;;
80175;SDS011;69501;42.124;24.722;2023-05-27T13:38:46;5.28;;;4.72;;
80175;SDS011;69501;42.124;24.722;2023-05-27T13:41:12;5.40;;;5.00;;
80175;SDS011;69501;42.124;24.722;2023-05-27T13:43:37;4.07;;;3.72;;
80175;SDS011;69501;42.124;24.722;2023-05-27T13:46:03;5.47;;;3.50;;
80175;SDS011;69501;42.124;24.722;2023-05-27T13:48:29;6.43;;;5.25;;
80175;SDS011;69501;42.124;24.722;2023-05-27T13:50:55;5.07;;;4.07;;
80175;SDS011;69501;42.124;24.722;2023-05-27T13:53:21;4.53;;;4.13;;
80175;SDS011;69501;42.124;24.722;2023-05-27T13:55:46;4.60;;;4.20;;
80175;SDS011;69501;42.124;24.722;2023-05-27T13:58:12;4.20;;;3.90;;
80175;SDS011;69501;42.124;24.722;2023-05-27T14:00:38;4.43;;;4.05;;
80175;SDS011;69501;42.124;24.722;2023-05-27T14:03:03;5.45;;;4.78;;
80175;SDS011;69501;42.124;24.722;2023-05-27T14:05:29;4.85;;;3.90;;
80175;SDS011;69501;42.124;24.722;2023-05-27T14:07:55;5.65;;;4.00;;
80175;SDS011;69501;42.124;24.722;2023-05-27T14:10:21;6.47;;;4.05;;
80175;SDS011;69501;42.124;24.722;2023-05-27T14:12:47;5.60;;;4.88;;
80175;SDS011;69501;42.124;24.722;2023-05-27T14:15:12;4.90;;;4.35;;
80175;SDS011;69501;42.124;24.722;2023-05-27T14:17:38;4.30;;;4.00;;
80175;SDS011;69501;42.124;24.722;2023-05-27T14:20:04;5.10;;;3.55;;
80175;SDS011;69501;42.124;24.722;2023-05-27T14:22:38;3.83;;;3.50;;
80175;SDS011;69501;42.124;24.722;2023-05-27T14:25:05;3.78;;;3.47;;
80175;SDS011;69501;42.124;24.722;2023-05-27T14:27:31;3.85;;;3.65;;
80175;SDS011;69501;42.124;24.722;2023-05-27T14:29:57;5.32;;;3.83;;
80175;SDS011;69501;42.124;24.722;2023-05-27T14:32:22;4.30;;;3.90;;
80175;SDS011;69501;42.124;24.722;2023-05-27T14:34:48;4.50;;;4.05;;
80175;SDS011;69501;42.124;24.722;2023-05-27T14:37:14;4.40;;;4.10;;
80175;SDS011;69501;42.124;24.722;2023-05-27T14:39:39;4.32;;;4.00;;
80175;SDS011;69501;42.124;24.722;2023-05-27T14:42:05;4.53;;;4.15;;
80175;SDS011;69501;42.124;24.722;2023-05-27T14:44:34;4.55;;;3.53;;
80175;SDS011;69501;42.124;24.722;2023-05-27T14:47:01;4.15;;;3.85;;
80175;SDS011;69501;42.124;24.722;2023-05-27T14:49:27;4.72;;;4.40;;